Airfield :
LOGIN :

Register | Disclaimer

   EN    FR    IT 

 










Legend :    VFR   Marginal VFR   IFR   Intensive IFR   Very Intensive IFR
Visi :
Ceiling :
>= 8 km
>= 3000ft
5 to 8 km
1000 to 3000 ft
1500m to 5 km
500 to 1000 ft
800 to 1500m
200 to 500 ft
< 800m
< 200 ft
Symbols :   Thunderstorms  Fog  Heavy snow  Heavy precipitations  Wind > 20 kt
SIGMETs :     Misc.  Thunderstorms  Icing  Turbulence  Mountain Waves  Volcanic Ashes






- Airport Elevation : 915 ft
- IATA code : LUG


LSZA - Lugano

CURRENT METAR :
  • 271620Z 03012KT 350V100 9999 VCSH FEW050 OVC075 06/M03 Q1007 NOSIG

EXPIRED METARs :
  • 271550Z 02017KT 9999 VCSH SCT050 OVC085 06/M03 Q1006 NOSIG
  • 271520Z 35005KT 310V060 9999 SHSN SCT050 OVC080 09/M08 Q1006 NOSIG
  • 271450Z VRB01KT 9999 VCSH SCT060 OVC090 09/M07 Q1007 NOSIG
  • 271420Z VRB01KT 9999 VCSH SCT060 OVC090 09/M09 Q1006 NOSIG
  • 271350Z VRB02KT 9999 BKN095 09/M10 Q1007 NOSIG
  • 271320Z VRB03KT 9999 BKN090 BKN100 09/M10 Q1007 NOSIG

TAF TAF LSZA
Valid from the 27 at 15:00 until the 28 at 00:00 UTC


271425Z 2715/2724 VRB03KT 9999 BKN095
PROB40 2718/2721 01010KT
ATIS : +41 22 417 40 88



MET'MAP, your aeronautical weather chart ! - Copyright ORBIFLY December 2007 - Disclaimer

ORBIFLY MET'MAP TEAM :

Programming & Development : Alexandra Zaïnal
Concept & original design : Baudouin d'Aumeries
Assistance for programming : Marc-Olivier Méhu
Technical & hardware support : Manuel Goepfert

Contact : metmap@orbifly.com




SOURCES & CREDITS :

   NOAA